YXX weather

Abbotsford Airport
Abbotsford, British Columbia, Canada

Public forecast

Using degrees Celsius for public forecast. Weather courtesy of forecast.io.

METAR (pilot weather report)

Retrieved 2019/03/21 03:00 UTC (8 minutes ago):

CYXX 210300Z VRB02KT 15SM FEW180 SCT220 15/05 A2984 RMK AC2CI2 SLP106 DENSITY ALT 300FT

TAF (pilot weather forecast)

Forecast is more than 12 hours old.

Retrieved 2019/03/20 00:42 UTC (1 day ago):

TAF CYXX 202338Z 2100/2124 VRB03KT P6SM SKC BECMG 2108/2110 03006KT SCT100 SCT250 FM211400 VRB03KT P6SM SCT100 SCT250 BECMG 2119/2121 27008KT SCT025 SCT120 RMK NXT FCST BY 210600Z